sensor_id;sensor_type;location;lat;lon;timestamp;P1;P2;P0
43479;PMS5003;29067;35.492;-97.520;2023-08-30T00:01:20;9;9;
43479;PMS5003;29067;35.492;-97.520;2023-08-30T00:03:48;11;10;
43479;PMS5003;29067;35.492;-97.520;2023-08-30T00:06:16;10;8;
43479;PMS5003;29067;35.492;-97.520;2023-08-30T00:08:45;9;8;
43479;PMS5003;29067;35.492;-97.520;2023-08-30T00:11:13;11;10;
43479;PMS5003;29067;35.492;-97.520;2023-08-30T00:13:41;9;9;
43479;PMS5003;29067;35.492;-97.520;2023-08-30T00:16:10;9;9;
43479;PMS5003;29067;35.492;-97.520;2023-08-30T00:18:38;7;7;
43479;PMS5003;29067;35.492;-97.520;2023-08-30T00:21:06;9;8;
43479;PMS5003;29067;35.492;-97.520;2023-08-30T00:23:34;9;9;
43479;PMS5003;29067;35.492;-97.520;2023-08-30T00:26:02;9;9;
43479;PMS5003;29067;35.492;-97.520;2023-08-30T00:28:31;12;11;
43479;PMS5003;29067;35.492;-97.520;2023-08-30T00:30:59;11;11;
43479;PMS5003;29067;35.492;-97.520;2023-08-30T00:33:27;11;11;
43479;PMS5003;29067;35.492;-97.520;2023-08-30T00:35:56;11;11;
43479;PMS5003;29067;35.492;-97.520;2023-08-30T00:38:30;11;11;
43479;PMS5003;29067;35.492;-97.520;2023-08-30T00:41:07;12;12;
43479;PMS5003;29067;35.492;-97.520;2023-08-30T00:43:35;14;14;
43479;PMS5003;29067;35.492;-97.520;2023-08-30T00:46:03;12;12;
43479;PMS5003;29067;35.492;-97.520;2023-08-30T00:48:31;11;11;
43479;PMS5003;29067;35.492;-97.520;2023-08-30T00:51:00;11;10;
43479;PMS5003;29067;35.492;-97.520;2023-08-30T00:53:28;13;12;
43479;PMS5003;29067;35.492;-97.520;2023-08-30T00:55:56;11;10;
43479;PMS5003;29067;35.492;-97.520;2023-08-30T00:58:24;10;10;
43479;PMS5003;29067;35.492;-97.520;2023-08-30T01:00:53;11;11;
43479;PMS5003;29067;35.492;-97.520;2023-08-30T01:03:22;11;11;
43479;PMS5003;29067;35.492;-97.520;2023-08-30T01:05:50;9;9;
43479;PMS5003;29067;35.492;-97.520;2023-08-30T01:08:18;11;11;
43479;PMS5003;29067;35.492;-97.520;2023-08-30T01:10:50;10;10;
43479;PMS5003;29067;35.492;-97.520;2023-08-30T01:13:47;9;9;
43479;PMS5003;29067;35.492;-97.520;2023-08-30T01:16:23;10;10;
43479;PMS5003;29067;35.492;-97.520;2023-08-30T01:18:52;9;8;
43479;PMS5003;29067;35.492;-97.520;2023-08-30T01:21:23;11;9;
43479;PMS5003;29067;35.492;-97.520;2023-08-30T01:24:09;10;9;
43479;PMS5003;29067;35.492;-97.520;2023-08-30T01:29:30;10;10;
43479;PMS5003;29067;35.492;-97.520;2023-08-30T01:32:00;10;10;
43479;PMS5003;29067;35.492;-97.520;2023-08-30T01:34:29;9;9;
43479;PMS5003;29067;35.492;-97.520;2023-08-30T01:36:58;11;10;
43479;PMS5003;29067;35.492;-97.520;2023-08-30T01:39:27;12;12;
43479;PMS5003;29067;35.492;-97.520;2023-08-30T01:41:56;12;12;
43479;PMS5003;29067;35.492;-97.520;2023-08-30T01:44:24;12;12;
43479;PMS5003;29067;35.492;-97.520;2023-08-30T01:46:53;12;12;
43479;PMS5003;29067;35.492;-97.520;2023-08-30T01:49:22;10;10;
43479;PMS5003;29067;35.492;-97.520;2023-08-30T01:51:51;12;12;
43479;PMS5003;29067;35.492;-97.520;2023-08-30T01:54:20;10;10;
43479;PMS5003;29067;35.492;-97.520;2023-08-30T01:56:48;11;9;
43479;PMS5003;29067;35.492;-97.520;2023-08-30T01:59:16;10;10;
43479;PMS5003;29067;35.492;-97.520;2023-08-30T02:01:45;10;9;
43479;PMS5003;29067;35.492;-97.520;2023-08-30T02:04:13;13;13;
43479;PMS5003;29067;35.492;-97.520;2023-08-30T02:06:42;11;11;
43479;PMS5003;29067;35.492;-97.520;2023-08-30T02:09:19;12;11;
43479;PMS5003;29067;35.492;-97.520;2023-08-30T02:11:51;12;11;
43479;PMS5003;29067;35.492;-97.520;2023-08-30T02:14:20;13;13;
43479;PMS5003;29067;35.492;-97.520;2023-08-30T02:16:50;10;10;
43479;PMS5003;29067;35.492;-97.520;2023-08-30T02:19:19;14;12;
43479;PMS5003;29067;35.492;-97.520;2023-08-30T02:21:47;10;10;
43479;PMS5003;29067;35.492;-97.520;2023-08-30T02:24:16;12;11;
43479;PMS5003;29067;35.492;-97.520;2023-08-30T02:26:44;11;11;
43479;PMS5003;29067;35.492;-97.520;2023-08-30T02:29:12;10;10;
43479;PMS5003;29067;35.492;-97.520;2023-08-30T02:31:40;12;12;
43479;PMS5003;29067;35.492;-97.520;2023-08-30T02:34:09;13;13;
43479;PMS5003;29067;35.492;-97.520;2023-08-30T02:36:37;14;13;
43479;PMS5003;29067;35.492;-97.520;2023-08-30T02:39:05;16;16;
43479;PMS5003;29067;35.492;-97.520;2023-08-30T02:41:34;17;17;
43479;PMS5003;29067;35.492;-97.520;2023-08-30T02:44:02;12;12;
43479;PMS5003;29067;35.492;-97.520;2023-08-30T02:46:30;10;10;
43479;PMS5003;29067;35.492;-97.520;2023-08-30T02:48:59;11;11;
43479;PMS5003;29067;35.492;-97.520;2023-08-30T02:51:27;10;9;
43479;PMS5003;29067;35.492;-97.520;2023-08-30T02:53:56;10;10;
43479;PMS5003;29067;35.492;-97.520;2023-08-30T02:56:23;13;12;
43479;PMS5003;29067;35.492;-97.520;2023-08-30T02:58:52;10;10;
43479;PMS5003;29067;35.492;-97.520;2023-08-30T03:01:20;10;9;
43479;PMS5003;29067;35.492;-97.520;2023-08-30T03:03:48;10;9;
43479;PMS5003;29067;35.492;-97.520;2023-08-30T03:06:17;12;11;
43479;PMS5003;29067;35.492;-97.520;2023-08-30T03:08:45;11;10;
43479;PMS5003;29067;35.492;-97.520;2023-08-30T03:11:13;12;12;
43479;PMS5003;29067;35.492;-97.520;2023-08-30T03:13:42;10;10;
43479;PMS5003;29067;35.492;-97.520;2023-08-30T03:16:10;11;11;
43479;PMS5003;29067;35.492;-97.520;2023-08-30T03:18:38;13;12;
43479;PMS5003;29067;35.492;-97.520;2023-08-30T03:21:11;11;10;
43479;PMS5003;29067;35.492;-97.520;2023-08-30T03:23:40;11;11;
43479;PMS5003;29067;35.492;-97.520;2023-08-30T03:26:08;11;10;
43479;PMS5003;29067;35.492;-97.520;2023-08-30T03:28:38;13;13;
43479;PMS5003;29067;35.492;-97.520;2023-08-30T03:31:11;11;10;
43479;PMS5003;29067;35.492;-97.520;2023-08-30T03:33:40;12;11;
43479;PMS5003;29067;35.492;-97.520;2023-08-30T03:36:10;16;13;
43479;PMS5003;29067;35.492;-97.520;2023-08-30T03:38:39;13;12;
43479;PMS5003;29067;35.492;-97.520;2023-08-30T03:41:07;9;9;
43479;PMS5003;29067;35.492;-97.520;2023-08-30T03:43:37;11;10;
43479;PMS5003;29067;35.492;-97.520;2023-08-30T03:46:05;13;13;
43479;PMS5003;29067;35.492;-97.520;2023-08-30T03:48:33;11;10;
43479;PMS5003;29067;35.492;-97.520;2023-08-30T03:51:02;11;11;
43479;PMS5003;29067;35.492;-97.520;2023-08-30T03:53:30;12;11;
43479;PMS5003;29067;35.492;-97.520;2023-08-30T03:55:59;15;13;
43479;PMS5003;29067;35.492;-97.520;2023-08-30T03:58:27;13;13;
43479;PMS5003;29067;35.492;-97.520;2023-08-30T04:00:56;14;13;
43479;PMS5003;29067;35.492;-97.520;2023-08-30T04:03:24;11;11;
43479;PMS5003;29067;35.492;-97.520;2023-08-30T04:05:55;12;12;
43479;PMS5003;29067;35.492;-97.520;2023-08-30T04:08:23;15;13;
43479;PMS5003;29067;35.492;-97.520;2023-08-30T04:10:52;13;13;
43479;PMS5003;29067;35.492;-97.520;2023-08-30T04:13:20;13;12;
43479;PMS5003;29067;35.492;-97.520;2023-08-30T04:15:48;15;14;
43479;PMS5003;29067;35.492;-97.520;2023-08-30T04:18:18;12;11;
43479;PMS5003;29067;35.492;-97.520;2023-08-30T04:20:46;18;14;
43479;PMS5003;29067;35.492;-97.520;2023-08-30T04:23:14;14;14;
43479;PMS5003;29067;35.492;-97.520;2023-08-30T04:25:43;16;16;
43479;PMS5003;29067;35.492;-97.520;2023-08-30T04:28:11;17;16;
43479;PMS5003;29067;35.492;-97.520;2023-08-30T04:30:39;26;24;
43479;PMS5003;29067;35.492;-97.520;2023-08-30T04:33:08;17;14;
43479;PMS5003;29067;35.492;-97.520;2023-08-30T04:35:36;13;13;
43479;PMS5003;29067;35.492;-97.520;2023-08-30T04:38:04;26;26;
43479;PMS5003;29067;35.492;-97.520;2023-08-30T04:40:32;17;15;
43479;PMS5003;29067;35.492;-97.520;2023-08-30T04:43:00;16;16;
43479;PMS5003;29067;35.492;-97.520;2023-08-30T04:45:29;16;15;
43479;PMS5003;29067;35.492;-97.520;2023-08-30T04:47:57;15;15;
43479;PMS5003;29067;35.492;-97.520;2023-08-30T04:50:25;16;16;
43479;PMS5003;29067;35.492;-97.520;2023-08-30T04:52:54;21;20;
43479;PMS5003;29067;35.492;-97.520;2023-08-30T04:55:23;19;18;
43479;PMS5003;29067;35.492;-97.520;2023-08-30T04:57:52;23;23;
43479;PMS5003;29067;35.492;-97.520;2023-08-30T05:00:20;26;24;
43479;PMS5003;29067;35.492;-97.520;2023-08-30T05:02:48;25;25;
43479;PMS5003;29067;35.492;-97.520;2023-08-30T05:05:16;29;28;
43479;PMS5003;29067;35.492;-97.520;2023-08-30T05:07:44;30;29;
43479;PMS5003;29067;35.492;-97.520;2023-08-30T05:10:12;19;18;
43479;PMS5003;29067;35.492;-97.520;2023-08-30T05:12:40;19;18;
43479;PMS5003;29067;35.492;-97.520;2023-08-30T05:15:09;37;37;
43479;PMS5003;29067;35.492;-97.520;2023-08-30T05:17:37;40;39;
43479;PMS5003;29067;35.492;-97.520;2023-08-30T05:20:05;18;15;
43479;PMS5003;29067;35.492;-97.520;2023-08-30T05:22:34;37;37;
43479;PMS5003;29067;35.492;-97.520;2023-08-30T05:25:03;23;18;
43479;PMS5003;29067;35.492;-97.520;2023-08-30T05:27:31;20;16;
43479;PMS5003;29067;35.492;-97.520;2023-08-30T05:29:59;67;62;
43479;PMS5003;29067;35.492;-97.520;2023-08-30T05:32:27;19;16;
43479;PMS5003;29067;35.492;-97.520;2023-08-30T05:34:55;25;25;
43479;PMS5003;29067;35.492;-97.520;2023-08-30T05:37:22;69;67;
43479;PMS5003;29067;35.492;-97.520;2023-08-30T05:39:51;32;32;
43479;PMS5003;29067;35.492;-97.520;2023-08-30T05:42:19;22;17;
43479;PMS5003;29067;35.492;-97.520;2023-08-30T05:44:47;40;40;
43479;PMS5003;29067;35.492;-97.520;2023-08-30T05:47:16;22;21;
43479;PMS5003;29067;35.492;-97.520;2023-08-30T05:49:43;22;21;
43479;PMS5003;29067;35.492;-97.520;2023-08-30T05:52:11;23;20;
43479;PMS5003;29067;35.492;-97.520;2023-08-30T05:54:39;33;32;
43479;PMS5003;29067;35.492;-97.520;2023-08-30T05:57:07;30;30;
43479;PMS5003;29067;35.492;-97.520;2023-08-30T05:59:36;17;17;
43479;PMS5003;29067;35.492;-97.520;2023-08-30T06:02:05;39;36;
43479;PMS5003;29067;35.492;-97.520;2023-08-30T06:04:33;27;25;
43479;PMS5003;29067;35.492;-97.520;2023-08-30T06:07:01;18;15;
43479;PMS5003;29067;35.492;-97.520;2023-08-30T06:09:29;15;15;
43479;PMS5003;29067;35.492;-97.520;2023-08-30T06:11:58;16;16;
43479;PMS5003;29067;35.492;-97.520;2023-08-30T06:14:26;17;16;
43479;PMS5003;29067;35.492;-97.520;2023-08-30T06:16:54;16;16;
43479;PMS5003;29067;35.492;-97.520;2023-08-30T06:19:22;15;14;
43479;PMS5003;29067;35.492;-97.520;2023-08-30T06:21:51;13;11;
43479;PMS5003;29067;35.492;-97.520;2023-08-30T06:24:19;14;13;
43479;PMS5003;29067;35.492;-97.520;2023-08-30T06:26:48;15;13;
43479;PMS5003;29067;35.492;-97.520;2023-08-30T06:29:16;17;15;
43479;PMS5003;29067;35.492;-97.520;2023-08-30T06:31:45;12;12;
43479;PMS5003;29067;35.492;-97.520;2023-08-30T06:34:12;16;15;
43479;PMS5003;29067;35.492;-97.520;2023-08-30T06:36:40;13;12;
43479;PMS5003;29067;35.492;-97.520;2023-08-30T06:39:08;15;14;
43479;PMS5003;29067;35.492;-97.520;2023-08-30T06:41:35;14;13;
43479;PMS5003;29067;35.492;-97.520;2023-08-30T06:44:03;12;12;
43479;PMS5003;29067;35.492;-97.520;2023-08-30T06:46:31;12;12;
43479;PMS5003;29067;35.492;-97.520;2023-08-30T06:48:59;16;14;
43479;PMS5003;29067;35.492;-97.520;2023-08-30T06:51:28;15;14;
43479;PMS5003;29067;35.492;-97.520;2023-08-30T06:53:56;15;15;
43479;PMS5003;29067;35.492;-97.520;2023-08-30T06:56:25;13;11;
43479;PMS5003;29067;35.492;-97.520;2023-08-30T06:58:53;14;14;
43479;PMS5003;29067;35.492;-97.520;2023-08-30T07:01:22;15;15;
43479;PMS5003;29067;35.492;-97.520;2023-08-30T07:03:50;14;13;
43479;PMS5003;29067;35.492;-97.520;2023-08-30T07:06:18;15;14;
43479;PMS5003;29067;35.492;-97.520;2023-08-30T07:08:46;14;14;
43479;PMS5003;29067;35.492;-97.520;2023-08-30T07:11:14;14;13;
43479;PMS5003;29067;35.492;-97.520;2023-08-30T07:13:42;16;14;
43479;PMS5003;29067;35.492;-97.520;2023-08-30T07:16:10;13;12;
43479;PMS5003;29067;35.492;-97.520;2023-08-30T07:18:37;14;14;
43479;PMS5003;29067;35.492;-97.520;2023-08-30T07:21:06;17;13;
43479;PMS5003;29067;35.492;-97.520;2023-08-30T07:23:34;13;13;
43479;PMS5003;29067;35.492;-97.520;2023-08-30T07:26:02;13;13;
43479;PMS5003;29067;35.492;-97.520;2023-08-30T07:28:30;12;12;
43479;PMS5003;29067;35.492;-97.520;2023-08-30T07:31:05;14;14;
43479;PMS5003;29067;35.492;-97.520;2023-08-30T07:33:33;13;13;
43479;PMS5003;29067;35.492;-97.520;2023-08-30T07:36:01;16;15;
43479;PMS5003;29067;35.492;-97.520;2023-08-30T07:38:30;14;13;
43479;PMS5003;29067;35.492;-97.520;2023-08-30T07:40:58;11;11;
43479;PMS5003;29067;35.492;-97.520;2023-08-30T07:43:25;13;13;
43479;PMS5003;29067;35.492;-97.520;2023-08-30T07:45:53;12;11;
43479;PMS5003;29067;35.492;-97.520;2023-08-30T07:48:21;14;14;
43479;PMS5003;29067;35.492;-97.520;2023-08-30T07:50:49;14;13;
43479;PMS5003;29067;35.492;-97.520;2023-08-30T07:53:17;14;14;
43479;PMS5003;29067;35.492;-97.520;2023-08-30T07:55:48;15;15;
43479;PMS5003;29067;35.492;-97.520;2023-08-30T07:58:16;16;16;
43479;PMS5003;29067;35.492;-97.520;2023-08-30T08:00:44;15;15;
43479;PMS5003;29067;35.492;-97.520;2023-08-30T08:03:13;14;13;
43479;PMS5003;29067;35.492;-97.520;2023-08-30T08:05:41;16;14;
43479;PMS5003;29067;35.492;-97.520;2023-08-30T08:08:09;14;14;
43479;PMS5003;29067;35.492;-97.520;2023-08-30T08:10:37;12;12;
43479;PMS5003;29067;35.492;-97.520;2023-08-30T08:13:06;15;14;
43479;PMS5003;29067;35.492;-97.520;2023-08-30T08:15:34;14;14;
43479;PMS5003;29067;35.492;-97.520;2023-08-30T08:18:02;12;12;
43479;PMS5003;29067;35.492;-97.520;2023-08-30T08:20:30;12;12;
43479;PMS5003;29067;35.492;-97.520;2023-08-30T08:22:59;16;16;
43479;PMS5003;29067;35.492;-97.520;2023-08-30T08:25:26;14;14;
43479;PMS5003;29067;35.492;-97.520;2023-08-30T08:27:54;16;15;
43479;PMS5003;29067;35.492;-97.520;2023-08-30T08:30:22;15;14;
43479;PMS5003;29067;35.492;-97.520;2023-08-30T08:32:50;14;13;
43479;PMS5003;29067;35.492;-97.520;2023-08-30T08:35:18;14;14;
43479;PMS5003;29067;35.492;-97.520;2023-08-30T08:37:45;17;16;
43479;PMS5003;29067;35.492;-97.520;2023-08-30T08:40:14;17;16;
43479;PMS5003;29067;35.492;-97.520;2023-08-30T08:42:41;18;17;
43479;PMS5003;29067;35.492;-97.520;2023-08-30T08:45:10;16;16;
43479;PMS5003;29067;35.492;-97.520;2023-08-30T08:47:38;12;12;
43479;PMS5003;29067;35.492;-97.520;2023-08-30T08:50:07;17;16;
43479;PMS5003;29067;35.492;-97.520;2023-08-30T08:52:36;16;15;
43479;PMS5003;29067;35.492;-97.520;2023-08-30T08:55:05;14;14;
43479;PMS5003;29067;35.492;-97.520;2023-08-30T08:57:33;16;15;
43479;PMS5003;29067;35.492;-97.520;2023-08-30T09:00:01;16;15;
43479;PMS5003;29067;35.492;-97.520;2023-08-30T09:02:30;18;17;
43479;PMS5003;29067;35.492;-97.520;2023-08-30T09:04:58;16;16;
43479;PMS5003;29067;35.492;-97.520;2023-08-30T09:07:27;18;17;
43479;PMS5003;29067;35.492;-97.520;2023-08-30T09:09:55;16;14;
43479;PMS5003;29067;35.492;-97.520;2023-08-30T09:12:23;18;15;
43479;PMS5003;29067;35.492;-97.520;2023-08-30T09:14:55;16;15;
43479;PMS5003;29067;35.492;-97.520;2023-08-30T09:17:23;16;15;
43479;PMS5003;29067;35.492;-97.520;2023-08-30T09:20:06;19;17;
43479;PMS5003;29067;35.492;-97.520;2023-08-30T09:22:36;16;15;
43479;PMS5003;29067;35.492;-97.520;2023-08-30T09:25:05;20;15;
43479;PMS5003;29067;35.492;-97.520;2023-08-30T09:27:35;17;16;
43479;PMS5003;29067;35.492;-97.520;2023-08-30T09:30:05;16;15;
43479;PMS5003;29067;35.492;-97.520;2023-08-30T09:32:38;16;16;
43479;PMS5003;29067;35.492;-97.520;2023-08-30T09:35:07;15;15;
43479;PMS5003;29067;35.492;-97.520;2023-08-30T09:37:36;13;13;
43479;PMS5003;29067;35.492;-97.520;2023-08-30T09:40:04;18;17;
43479;PMS5003;29067;35.492;-97.520;2023-08-30T09:42:33;16;15;
43479;PMS5003;29067;35.492;-97.520;2023-08-30T09:45:02;17;15;
43479;PMS5003;29067;35.492;-97.520;2023-08-30T09:47:32;15;14;
43479;PMS5003;29067;35.492;-97.520;2023-08-30T09:50:00;15;15;
43479;PMS5003;29067;35.492;-97.520;2023-08-30T09:52:30;17;16;
43479;PMS5003;29067;35.492;-97.520;2023-08-30T09:55:00;18;17;
43479;PMS5003;29067;35.492;-97.520;2023-08-30T09:57:29;18;17;
43479;PMS5003;29067;35.492;-97.520;2023-08-30T09:59:57;16;14;
43479;PMS5003;29067;35.492;-97.520;2023-08-30T10:02:26;18;17;
43479;PMS5003;29067;35.492;-97.520;2023-08-30T10:04:55;14;14;
43479;PMS5003;29067;35.492;-97.520;2023-08-30T10:07:23;17;17;
43479;PMS5003;29067;35.492;-97.520;2023-08-30T10:09:52;15;15;
43479;PMS5003;29067;35.492;-97.520;2023-08-30T10:12:21;17;16;
43479;PMS5003;29067;35.492;-97.520;2023-08-30T10:14:50;18;16;
43479;PMS5003;29067;35.492;-97.520;2023-08-30T10:17:18;18;14;
43479;PMS5003;29067;35.492;-97.520;2023-08-30T10:19:49;15;15;
43479;PMS5003;29067;35.492;-97.520;2023-08-30T10:22:19;15;14;
43479;PMS5003;29067;35.492;-97.520;2023-08-30T10:24:50;14;14;
43479;PMS5003;29067;35.492;-97.520;2023-08-30T10:27:22;15;14;
43479;PMS5003;29067;35.492;-97.520;2023-08-30T10:29:53;16;16;
43479;PMS5003;29067;35.492;-97.520;2023-08-30T10:32:22;16;15;
43479;PMS5003;29067;35.492;-97.520;2023-08-30T10:34:50;17;16;
43479;PMS5003;29067;35.492;-97.520;2023-08-30T10:37:22;18;17;
43479;PMS5003;29067;35.492;-97.520;2023-08-30T10:39:53;18;16;
43479;PMS5003;29067;35.492;-97.520;2023-08-30T10:42:26;24;20;
43479;PMS5003;29067;35.492;-97.520;2023-08-30T10:44:56;17;16;
43479;PMS5003;29067;35.492;-97.520;2023-08-30T10:47:26;16;15;
43479;PMS5003;29067;35.492;-97.520;2023-08-30T10:49:56;17;15;
43479;PMS5003;29067;35.492;-97.520;2023-08-30T10:52:25;19;17;
43479;PMS5003;29067;35.492;-97.520;2023-08-30T10:55:03;17;16;
43479;PMS5003;29067;35.492;-97.520;2023-08-30T10:57:33;14;13;
43479;PMS5003;29067;35.492;-97.520;2023-08-30T11:02:59;18;16;
43479;PMS5003;29067;35.492;-97.520;2023-08-30T11:05:29;17;17;
43479;PMS5003;29067;35.492;-97.520;2023-08-30T11:07:58;17;15;
43479;PMS5003;29067;35.492;-97.520;2023-08-30T11:10:26;18;16;
43479;PMS5003;29067;35.492;-97.520;2023-08-30T11:12:55;15;15;
43479;PMS5003;29067;35.492;-97.520;2023-08-30T11:15:24;15;15;
43479;PMS5003;29067;35.492;-97.520;2023-08-30T11:18:02;16;15;
43479;PMS5003;29067;35.492;-97.520;2023-08-30T11:20:30;14;14;
43479;PMS5003;29067;35.492;-97.520;2023-08-30T11:22:57;19;18;
43479;PMS5003;29067;35.492;-97.520;2023-08-30T11:25:25;17;15;
43479;PMS5003;29067;35.492;-97.520;2023-08-30T11:28:01;17;15;
43479;PMS5003;29067;35.492;-97.520;2023-08-30T11:30:29;18;17;
43479;PMS5003;29067;35.492;-97.520;2023-08-30T11:32:58;15;15;
43479;PMS5003;29067;35.492;-97.520;2023-08-30T11:35:26;15;15;
43479;PMS5003;29067;35.492;-97.520;2023-08-30T11:37:54;14;14;
43479;PMS5003;29067;35.492;-97.520;2023-08-30T11:40:21;16;15;
43479;PMS5003;29067;35.492;-97.520;2023-08-30T11:42:50;13;13;
43479;PMS5003;29067;35.492;-97.520;2023-08-30T11:45:19;15;15;
43479;PMS5003;29067;35.492;-97.520;2023-08-30T11:47:47;14;14;
43479;PMS5003;29067;35.492;-97.520;2023-08-30T11:50:16;16;16;
43479;PMS5003;29067;35.492;-97.520;2023-08-30T11:52:44;15;15;
43479;PMS5003;29067;35.492;-97.520;2023-08-30T11:55:13;16;16;
43479;PMS5003;29067;35.492;-97.520;2023-08-30T11:57:43;15;15;
43479;PMS5003;29067;35.492;-97.520;2023-08-30T12:00:12;15;15;
43479;PMS5003;29067;35.492;-97.520;2023-08-30T12:02:41;16;15;
43479;PMS5003;29067;35.492;-97.520;2023-08-30T12:05:10;17;16;
43479;PMS5003;29067;35.492;-97.520;2023-08-30T12:07:39;17;15;
43479;PMS5003;29067;35.492;-97.520;2023-08-30T12:10:08;13;13;
43479;PMS5003;29067;35.492;-97.520;2023-08-30T12:12:38;17;15;
43479;PMS5003;29067;35.492;-97.520;2023-08-30T12:15:12;15;14;
43479;PMS5003;29067;35.492;-97.520;2023-08-30T12:17:41;16;16;
43479;PMS5003;29067;35.492;-97.520;2023-08-30T12:20:14;17;16;
43479;PMS5003;29067;35.492;-97.520;2023-08-30T12:22:42;15;14;
43479;PMS5003;29067;35.492;-97.520;2023-08-30T12:25:19;16;15;
43479;PMS5003;29067;35.492;-97.520;2023-08-30T12:27:52;14;13;
43479;PMS5003;29067;35.492;-97.520;2023-08-30T12:30:20;12;12;
43479;PMS5003;29067;35.492;-97.520;2023-08-30T12:32:49;14;14;
43479;PMS5003;29067;35.492;-97.520;2023-08-30T12:35:27;15;15;
43479;PMS5003;29067;35.492;-97.520;2023-08-30T12:38:00;20;16;
43479;PMS5003;29067;35.492;-97.520;2023-08-30T12:40:28;13;13;
43479;PMS5003;29067;35.492;-97.520;2023-08-30T12:42:55;14;14;
43479;PMS5003;29067;35.492;-97.520;2023-08-30T12:45:23;15;14;
43479;PMS5003;29067;35.492;-97.520;2023-08-30T12:47:51;13;13;
43479;PMS5003;29067;35.492;-97.520;2023-08-30T12:50:19;16;15;
43479;PMS5003;29067;35.492;-97.520;2023-08-30T12:52:48;18;18;
43479;PMS5003;29067;35.492;-97.520;2023-08-30T12:55:15;17;17;
43479;PMS5003;29067;35.492;-97.520;2023-08-30T12:57:43;19;18;
43479;PMS5003;29067;35.492;-97.520;2023-08-30T13:00:17;16;16;
43479;PMS5003;29067;35.492;-97.520;2023-08-30T13:02:45;19;17;
43479;PMS5003;29067;35.492;-97.520;2023-08-30T13:05:12;16;16;
43479;PMS5003;29067;35.492;-97.520;2023-08-30T13:07:41;13;13;
43479;PMS5003;29067;35.492;-97.520;2023-08-30T13:10:09;21;19;
43479;PMS5003;29067;35.492;-97.520;2023-08-30T13:12:43;17;16;
43479;PMS5003;29067;35.492;-97.520;2023-08-30T13:15:11;19;18;
43479;PMS5003;29067;35.492;-97.520;2023-08-30T13:17:39;18;18;
43479;PMS5003;29067;35.492;-97.520;2023-08-30T13:20:08;19;18;
43479;PMS5003;29067;35.492;-97.520;2023-08-30T13:22:42;19;18;
43479;PMS5003;29067;35.492;-97.520;2023-08-30T13:25:10;18;18;
43479;PMS5003;29067;35.492;-97.520;2023-08-30T13:27:38;18;17;
43479;PMS5003;29067;35.492;-97.520;2023-08-30T13:30:07;19;17;
43479;PMS5003;29067;35.492;-97.520;2023-08-30T13:32:45;19;17;
43479;PMS5003;29067;35.492;-97.520;2023-08-30T13:35:14;15;15;
43479;PMS5003;29067;35.492;-97.520;2023-08-30T13:37:48;18;18;
43479;PMS5003;29067;35.492;-97.520;2023-08-30T13:40:16;22;19;
43479;PMS5003;29067;35.492;-97.520;2023-08-30T13:42:49;23;20;
43479;PMS5003;29067;35.492;-97.520;2023-08-30T13:45:17;21;20;
43479;PMS5003;29067;35.492;-97.520;2023-08-30T13:47:45;19;17;
43479;PMS5003;29067;35.492;-97.520;2023-08-30T13:50:13;20;17;
43479;PMS5003;29067;35.492;-97.520;2023-08-30T13:52:41;14;13;
43479;PMS5003;29067;35.492;-97.520;2023-08-30T13:55:10;20;19;
43479;PMS5003;29067;35.492;-97.520;2023-08-30T13:57:38;22;20;
43479;PMS5003;29067;35.492;-97.520;2023-08-30T14:00:08;21;20;
43479;PMS5003;29067;35.492;-97.520;2023-08-30T14:02:36;18;17;
43479;PMS5003;29067;35.492;-97.520;2023-08-30T14:05:05;20;18;
43479;PMS5003;29067;35.492;-97.520;2023-08-30T14:07:35;21;20;
43479;PMS5003;29067;35.492;-97.520;2023-08-30T14:10:03;19;19;
43479;PMS5003;29067;35.492;-97.520;2023-08-30T14:12:42;22;20;
43479;PMS5003;29067;35.492;-97.520;2023-08-30T14:15:10;17;17;
43479;PMS5003;29067;35.492;-97.520;2023-08-30T14:17:39;22;22;
43479;PMS5003;29067;35.492;-97.520;2023-08-30T14:20:13;21;20;
43479;PMS5003;29067;35.492;-97.520;2023-08-30T14:22:41;24;20;
43479;PMS5003;29067;35.492;-97.520;2023-08-30T14:25:09;21;21;
43479;PMS5003;29067;35.492;-97.520;2023-08-30T14:27:37;23;21;
43479;PMS5003;29067;35.492;-97.520;2023-08-30T14:30:11;21;20;
43479;PMS5003;29067;35.492;-97.520;2023-08-30T14:32:45;21;20;
43479;PMS5003;29067;35.492;-97.520;2023-08-30T14:35:13;22;22;
43479;PMS5003;29067;35.492;-97.520;2023-08-30T14:37:41;21;21;
43479;PMS5003;29067;35.492;-97.520;2023-08-30T14:40:10;24;22;
43479;PMS5003;29067;35.492;-97.520;2023-08-30T14:42:39;26;22;
43479;PMS5003;29067;35.492;-97.520;2023-08-30T14:45:07;19;19;
43479;PMS5003;29067;35.492;-97.520;2023-08-30T14:47:35;23;18;
43479;PMS5003;29067;35.492;-97.520;2023-08-30T14:50:05;23;21;
43479;PMS5003;29067;35.492;-97.520;2023-08-30T14:52:33;21;21;
43479;PMS5003;29067;35.492;-97.520;2023-08-30T14:55:01;29;25;
43479;PMS5003;29067;35.492;-97.520;2023-08-30T14:57:35;21;21;
43479;PMS5003;29067;35.492;-97.520;2023-08-30T15:00:08;23;22;
43479;PMS5003;29067;35.492;-97.520;2023-08-30T15:02:42;22;21;
43479;PMS5003;29067;35.492;-97.520;2023-08-30T15:05:10;25;22;
43479;PMS5003;29067;35.492;-97.520;2023-08-30T15:07:43;26;23;
43479;PMS5003;29067;35.492;-97.520;2023-08-30T15:10:16;21;20;
43479;PMS5003;29067;35.492;-97.520;2023-08-30T15:12:44;43;42;
43479;PMS5003;29067;35.492;-97.520;2023-08-30T15:15:13;29;29;
43479;PMS5003;29067;35.492;-97.520;2023-08-30T15:17:41;45;43;
43479;PMS5003;29067;35.492;-97.520;2023-08-30T15:20:09;37;35;
43479;PMS5003;29067;35.492;-97.520;2023-08-30T15:22:37;38;37;
43479;PMS5003;29067;35.492;-97.520;2023-08-30T15:25:06;26;25;
43479;PMS5003;29067;35.492;-97.520;2023-08-30T15:27:35;27;22;
43479;PMS5003;29067;35.492;-97.520;2023-08-30T15:30:09;27;24;
43479;PMS5003;29067;35.492;-97.520;2023-08-30T15:32:43;25;25;
43479;PMS5003;29067;35.492;-97.520;2023-08-30T15:35:21;28;28;
43479;PMS5003;29067;35.492;-97.520;2023-08-30T15:37:49;32;29;
43479;PMS5003;29067;35.492;-97.520;2023-08-30T15:40:24;26;25;
43479;PMS5003;29067;35.492;-97.520;2023-08-30T15:42:57;32;29;
43479;PMS5003;29067;35.492;-97.520;2023-08-30T15:45:31;29;27;
43479;PMS5003;29067;35.492;-97.520;2023-08-30T15:48:05;27;24;
43479;PMS5003;29067;35.492;-97.520;2023-08-30T15:50:33;24;24;
43479;PMS5003;29067;35.492;-97.520;2023-08-30T15:53:06;25;25;
43479;PMS5003;29067;35.492;-97.520;2023-08-30T15:55:34;27;27;
43479;PMS5003;29067;35.492;-97.520;2023-08-30T15:58:03;25;25;
43479;PMS5003;29067;35.492;-97.520;2023-08-30T16:00:36;28;26;
43479;PMS5003;29067;35.492;-97.520;2023-08-30T16:03:05;24;23;
43479;PMS5003;29067;35.492;-97.520;2023-08-30T16:05:33;31;25;